Time;durP1;ratioP1;P1;durP2;ratioP2;P2;SDS_P1;SDS_P2;PMS_P1;PMS_P2;Temp;Humidity;BMP_temperature;BMP_pressure;BME280_temperature;BME280_humidity;BME280_pressure;Samples;Min_cycle;Max_cycle;Signal;HPM_P1;HPM_P2
2022/03/22 00:00:51;;;;;;;28.10;13.88;;;1.40;97.50;;;-0.18;60.89;103256.47;4925207;28;20347;-73
2022/03/22 00:03:19;;;;;;;31.30;14.40;;;1.40;98.10;;;-0.22;61.28;103251.97;4944413;28;20023;-73
2022/03/22 00:05:45;;;;;;;29.25;13.85;;;1.40;97.80;;;-0.21;61.27;103259.81;4941835;28;20526;-73
2022/03/22 00:08:12;;;;;;;26.42;13.02;;;1.40;97.50;;;-0.21;61.05;103256.34;4949213;28;20031;-73
2022/03/22 00:10:38;;;;;;;33.38;12.50;;;1.30;97.40;;;-0.28;60.57;103255.25;4949632;28;20023;-72
2022/03/22 00:13:06;;;;;;;27.58;12.18;;;1.30;97.40;;;-0.37;60.26;103251.41;4948669;28;20496;-72
2022/03/22 00:15:34;;;;;;;28.00;13.55;;;1.20;97.80;;;-0.48;60.99;103253.56;4952193;28;20500;-72
2022/03/22 00:18:01;;;;;;;34.53;13.90;;;1.10;98.80;;;-0.59;62.10;103255.72;4950931;28;20058;-73
2022/03/22 00:20:28;;;;;;;30.80;13.98;;;1.10;99.10;;;-0.64;62.59;103257.25;4950345;28;20020;-72
2022/03/22 00:22:55;;;;;;;30.15;13.13;;;1.00;99.00;;;-0.70;62.56;103255.28;4939439;28;20118;-72
2022/03/22 00:25:21;;;;;;;26.58;13.57;;;1.00;99.20;;;-0.67;63.00;103257.13;4953434;28;20031;-72
2022/03/22 00:27:53;;;;;;;39.58;15.35;;;1.00;99.30;;;-0.68;63.25;103250.19;4950165;28;20031;-71
2022/03/22 00:30:33;;;;;;;33.25;13.73;;;1.00;99.80;;;-0.67;63.85;103247.66;4948213;28;20051;-71
2022/03/22 00:33:06;;;;;;;30.52;13.15;;;1.00;99.80;;;-0.69;63.73;103248.41;4949118;28;20037;-71
2022/03/22 00:35:39;;;;;;;30.40;13.35;;;1.00;99.90;;;-0.72;63.85;103245.69;4948342;28;20038;-72
2022/03/22 00:38:11;;;;;;;27.20;13.70;;;1.00;99.90;;;-0.73;64.38;103242.25;4947028;28;20031;-72
2022/03/22 00:40:39;;;;;;;31.23;13.27;;;1.00;99.90;;;-0.73;64.66;103236.19;4948858;28;20110;-71
2022/03/22 00:43:05;;;;;;;35.55;12.63;;;0.90;99.90;;;-0.80;64.93;103234.16;4949959;28;20027;-71
2022/03/22 00:45:33;;;;;;;31.45;14.05;;;0.90;99.90;;;-0.80;64.33;103236.75;4949801;28;20025;-72
2022/03/22 00:48:03;;;;;;;29.85;13.88;;;0.90;99.90;;;-0.79;64.38;103234.22;4941734;28;20034;-71
2022/03/22 00:50:33;;;;;;;29.75;13.20;;;0.90;99.90;;;-0.83;64.90;103224.56;4949540;28;20029;-72
2022/03/22 00:53:01;;;;;;;31.45;13.93;;;0.90;99.90;;;-0.85;64.63;103228.81;4948845;28;20400;-72
2022/03/22 00:55:27;;;;;;;32.67;14.02;;;0.80;99.90;;;-0.87;64.98;103227.84;4952247;28;20728;-71
2022/03/22 00:57:56;;;;;;;26.85;13.32;;;0.80;99.90;;;-0.86;64.56;103227.06;4946440;28;20093;-72
2022/03/22 01:00:25;;;;;;;27.13;13.80;;;0.80;99.90;;;-0.85;64.76;103221.03;4970375;28;20174;-71
2022/03/22 01:02:54;;;;;;;36.33;13.70;;;0.80;99.90;;;-0.84;64.92;103222.81;4952185;28;20029;-72
2022/03/22 01:05:22;;;;;;;29.48;12.93;;;0.80;99.90;;;-0.84;64.69;103212.47;4953961;28;20526;-71
2022/03/22 01:07:54;;;;;;;30.65;14.45;;;0.80;99.90;;;-0.85;64.92;103215.88;4953757;28;20043;-71
2022/03/22 01:10:24;;;;;;;35.53;14.77;;;0.80;99.90;;;-0.89;65.52;103220.03;4976434;28;20077;-71
2022/03/22 01:12:50;;;;;;;34.95;14.23;;;0.80;99.90;;;-0.91;65.96;103211.31;4958202;28;20020;-71
2022/03/22 01:15:32;;;;;;;31.83;14.05;;;0.80;99.90;;;-0.88;66.15;103215.75;4956810;28;20913;-71
2022/03/22 01:18:03;;;;;;;29.92;13.80;;;0.80;99.90;;;-0.86;65.71;103216.69;4924261;28;20111;-71
2022/03/22 01:20:31;;;;;;;28.63;12.43;;;0.70;99.90;;;-0.86;65.89;103216.69;4954704;28;20023;-71
2022/03/22 01:22:57;;;;;;;35.00;13.68;;;0.80;99.90;;;-0.86;66.10;103215.00;4953368;28;20031;-71
2022/03/22 01:25:29;;;;;;;31.90;13.65;;;0.80;99.90;;;-0.79;66.45;103212.66;4952193;28;20029;-71
2022/03/22 01:27:57;;;;;;;34.25;13.93;;;0.80;99.90;;;-0.76;65.38;103212.78;4954566;28;20031;-71
2022/03/22 01:30:24;;;;;;;33.47;13.73;;;0.90;99.90;;;-0.72;65.56;103202.59;4936105;28;20098;-71
2022/03/22 01:32:52;;;;;;;31.40;13.77;;;0.90;99.90;;;-0.67;65.10;103201.09;4953213;28;20054;-71
2022/03/22 01:35:20;;;;;;;33.80;13.93;;;0.90;99.90;;;-0.60;64.89;103207.38;4953709;28;20038;-71
2022/03/22 01:37:48;;;;;;;29.70;13.55;;;1.00;99.90;;;-0.57;64.48;103209.22;4943443;28;20094;-71
2022/03/22 01:40:18;;;;;;;29.90;13.05;;;1.00;99.90;;;-0.60;64.54;103209.06;4975654;28;20027;-70
2022/03/22 01:42:45;;;;;;;33.88;14.07;;;1.00;99.90;;;-0.60;65.07;103209.06;4942921;28;20090;-71
2022/03/22 01:45:13;;;;;;;35.72;14.30;;;1.00;99.90;;;-0.61;64.76;103203.03;4946182;28;20123;-71
2022/03/22 01:47:42;;;;;;;30.00;14.07;;;1.00;99.90;;;-0.58;64.53;103197.06;4962670;28;20034;-72
2022/03/22 01:50:14;;;;;;;29.90;14.10;;;1.00;99.90;;;-0.60;64.86;103196.13;4943653;28;20054;-71
2022/03/22 01:52:43;;;;;;;31.02;14.57;;;1.00;99.90;;;-0.62;64.72;103199.56;4943522;28;20034;-71
2022/03/22 01:55:13;;;;;;;36.05;13.95;;;1.00;99.90;;;-0.62;64.61;103194.38;4962154;28;20057;-71
2022/03/22 01:57:40;;;;;;;32.42;13.98;;;1.00;99.90;;;-0.60;64.93;103196.13;4952292;28;20554;-71
2022/03/22 02:00:14;;;;;;;33.75;15.23;;;1.00;99.90;;;-0.59;65.09;103187.56;4952773;28;20071;-71
2022/03/22 02:08:14;;;;;;;35.40;13.88;;;1.00;99.90;;;-0.60;65.55;103185.78;4951084;28;20033;-71
2022/03/22 02:10:40;;;;;;;31.83;14.63;;;1.00;99.90;;;-0.60;65.33;103178.00;4974648;28;20506;-72
2022/03/22 02:13:06;;;;;;;29.90;13.73;;;1.00;99.90;;;-0.59;65.44;103188.44;4955318;28;20023;-71
2022/03/22 02:17:59;;;;;;;41.30;13.93;;;1.10;99.90;;;-0.55;65.00;103184.28;4977148;28;20042;-71
2022/03/22 02:20:26;;;;;;;30.85;14.38;;;1.00;99.90;;;-0.53;65.17;103187.81;4953462;28;20027;-71
2022/03/22 02:23:13;;;;;;;34.38;14.60;;;1.10;99.90;;;-0.55;64.99;103179.97;4952653;28;20070;-70
2022/03/22 02:25:39;;;;;;;28.45;14.68;;;1.10;99.90;;;-0.54;64.97;103180.84;4955075;28;20030;-71
2022/03/22 02:28:06;;;;;;;35.05;14.35;;;1.10;99.90;;;-0.53;64.90;103182.63;4953423;28;20034;-71
2022/03/22 02:30:32;;;;;;;37.20;14.93;;;1.10;99.90;;;-0.53;64.68;103180.03;4928374;28;20593;-71
2022/03/22 02:33:01;;;;;;;33.35;13.80;;;1.10;99.90;;;-0.52;64.44;103182.69;4943617;28;20031;-71
2022/03/22 02:35:29;;;;;;;32.25;14.10;;;1.10;99.90;;;-0.56;64.73;103179.91;4951701;28;20122;-71
2022/03/22 02:37:55;;;;;;;33.95;14.52;;;1.10;99.90;;;-0.60;64.98;103172.84;4942564;28;20031;-71
2022/03/22 02:40:21;;;;;;;29.27;14.50;;;1.10;99.90;;;-0.58;65.08;103176.38;4953046;28;20157;-71
2022/03/22 02:42:50;;;;;;;35.50;14.90;;;1.10;99.90;;;-0.54;64.32;103176.56;4953006;28;20039;-71
2022/03/22 02:45:23;;;;;;;30.85;14.45;;;1.10;99.90;;;-0.57;64.31;103172.97;4950155;28;20589;-71
2022/03/22 02:47:50;;;;;;;38.28;14.43;;;1.10;99.90;;;-0.59;64.65;103169.44;4952737;28;20054;-71
2022/03/22 02:50:16;;;;;;;34.22;14.77;;;1.00;99.90;;;-0.62;64.88;103175.38;4953032;28;20027;-71
2022/03/22 02:52:44;;;;;;;32.53;14.32;;;1.00;99.90;;;-0.62;65.12;103170.22;4950181;28;20039;-71
2022/03/22 02:55:12;;;;;;;36.45;13.77;;;1.00;99.90;;;-0.62;64.70;103173.69;4942194;28;20129;-71
2022/03/22 02:57:39;;;;;;;31.80;15.18;;;1.00;99.90;;;-0.60;64.58;103165.06;4959243;28;24334;-71
2022/03/22 03:00:10;;;;;;;38.55;14.07;;;1.00;99.90;;;-0.67;64.58;103166.53;4950446;28;20130;-71
2022/03/22 03:02:50;;;;;;;32.97;15.40;;;1.00;99.90;;;-0.67;64.79;103166.53;4949701;28;20019;-71
2022/03/22 03:05:17;;;;;;;38.50;14.25;;;1.00;99.90;;;-0.69;65.10;103169.09;4950284;28;20227;-71
2022/03/22 03:07:43;;;;;;;37.90;14.18;;;1.00;99.90;;;-0.69;65.30;103166.50;4951090;28;23242;-71
2022/03/22 03:10:09;;;;;;;31.48;14.82;;;1.00;99.90;;;-0.68;65.18;103162.22;4951780;28;20435;-70
2022/03/22 03:12:36;;;;;;;43.65;15.15;;;1.00;99.90;;;-0.66;65.41;103160.56;4942179;28;20038;-71
2022/03/22 03:15:05;;;;;;;36.92;14.55;;;1.00;99.90;;;-0.68;64.83;103168.25;4952376;28;20038;-71
2022/03/22 03:17:31;;;;;;;32.97;14.95;;;1.00;99.90;;;-0.69;64.19;103163.00;4942196;28;20121;-71
2022/03/22 03:19:57;;;;;;;31.00;14.18;;;1.00;99.90;;;-0.69;64.53;103161.34;4934292;28;20098;-71
2022/03/22 03:22:24;;;;;;;33.00;14.70;;;1.00;99.90;;;-0.69;64.72;103163.00;4937282;28;20030;-71
2022/03/22 03:24:50;;;;;;;34.17;14.95;;;0.90;99.90;;;-0.70;64.72;103159.56;4943710;28;20045;-71
2022/03/22 03:27:17;;;;;;;33.95;14.85;;;0.90;99.90;;;-0.72;64.73;103156.03;4952157;28;20597;-71
2022/03/22 03:29:43;;;;;;;29.48;14.30;;;0.90;99.90;;;-0.74;64.96;103159.38;4974777;28;20480;-71
2022/03/22 03:32:09;;;;;;;31.38;14.40;;;0.90;99.90;;;-0.79;64.66;103156.63;4935551;28;20107;-71
2022/03/22 03:34:36;;;;;;;33.30;14.35;;;0.90;99.90;;;-0.80;65.41;103156.53;4941244;28;20022;-71
2022/03/22 03:37:03;;;;;;;30.95;14.23;;;0.90;99.90;;;-0.80;65.02;103157.41;4949658;28;20038;-72
2022/03/22 03:39:28;;;;;;;40.85;15.18;;;0.80;99.90;;;-0.85;65.12;103154.66;4944116;28;20023;-71
2022/03/22 03:41:55;;;;;;;32.45;14.68;;;0.80;99.90;;;-0.86;65.60;103157.22;4949147;28;20113;-71
2022/03/22 03:47:17;;;;;;;33.00;13.38;;;0.80;99.90;;;-0.86;65.21;103157.22;4950534;28;20074;-71
2022/03/22 03:49:51;;;;;;;32.00;14.98;;;0.80;99.90;;;-0.86;65.01;103157.22;4950509;28;20038;-71
2022/03/22 03:52:38;;;;;;;44.70;14.15;;;0.80;99.90;;;-0.81;64.98;103166.03;4949981;28;20094;-71
2022/03/22 03:55:07;;;;;;;;;;;0.80;99.90;;;-0.77;64.23;103175.66;4934462;28;20023;-71
2022/03/22 03:57:35;;;;;;;34.40;14.40;;;0.90;99.90;;;-0.72;64.39;103161.19;4950107;28;19910;-71
2022/03/22 04:00:03;;;;;;;34.45;13.57;;;1.00;99.90;;;-0.67;64.05;103172.63;4947930;28;20031;-71
2022/03/22 04:02:29;;;;;;;30.35;13.85;;;1.00;99.90;;;-0.65;64.29;103167.50;4949208;28;20073;-71
2022/03/22 04:04:55;;;;;;;40.88;15.77;;;1.00;99.90;;;-0.57;63.99;103167.81;4949193;28;20113;-71
2022/03/22 04:07:27;;;;;;;31.83;14.65;;;1.10;99.90;;;-0.55;63.59;103171.34;4939237;28;20089;-71
2022/03/22 04:09:56;;;;;;;33.05;14.55;;;1.10;99.90;;;-0.59;63.91;103164.28;4949958;28;20102;-71
2022/03/22 04:12:26;;;;;;;31.02;14.15;;;1.00;99.90;;;-0.63;64.06;103160.66;4949185;28;20042;-70
2022/03/22 04:14:53;;;;;;;31.25;13.55;;;1.00;99.90;;;-0.63;63.91;103158.09;4950549;28;20114;-71
2022/03/22 04:17:20;;;;;;;33.38;14.32;;;1.00;99.90;;;-0.66;64.34;103165.75;4950273;28;20046;-70
2022/03/22 04:19:49;;;;;;;32.63;15.20;;;1.00;99.90;;;-0.60;63.77;103162.50;4951718;28;20085;-70
2022/03/22 04:22:16;;;;;;;33.35;14.38;;;1.10;99.90;;;-0.47;63.27;103173.38;4973028;28;20046;-70
2022/03/22 04:24:42;;;;;;;31.35;14.57;;;1.20;99.90;;;-0.45;62.83;103174.34;4950739;28;20809;-70
2022/03/22 04:32:44;;;;;;;36.90;15.02;;;1.10;99.90;;;-0.65;64.44;103175.25;4954005;28;20070;-70
2022/03/22 04:35:27;;;;;;;30.98;14.52;;;1.00;99.90;;;-0.74;64.51;103175.78;4951577;28;20661;-70
2022/03/22 04:37:55;;;;;;;34.90;15.65;;;0.90;99.90;;;-0.78;64.73;103171.31;4949407;28;20053;-70
2022/03/22 04:40:22;;;;;;;36.45;15.85;;;0.90;99.90;;;-0.87;65.54;103166.66;4952461;28;20495;-71
2022/03/22 04:42:51;;;;;;;38.13;15.18;;;0.80;99.90;;;-0.91;65.59;103166.47;4973941;28;20027;-70
2022/03/22 04:45:17;;;;;;;36.88;15.10;;;0.70;99.90;;;-0.98;66.16;103172.22;4934044;28;20031;-70
2022/03/22 04:47:45;;;;;;;46.05;16.38;;;0.70;99.90;;;-1.04;66.85;103167.69;4951346;28;20019;-71
2022/03/22 04:50:14;;;;;;;35.17;15.13;;;0.60;99.90;;;-1.08;67.25;103181.31;4952261;28;20027;-70
2022/03/22 04:58:10;;;;;;;45.83;19.80;;;0.50;99.90;;;-1.13;67.33;103175.94;4948174;28;20108;-70
2022/03/22 05:00:36;;;;;;;44.20;16.95;;;0.60;99.90;;;-1.07;67.41;103180.50;4951002;28;20488;-70
2022/03/22 05:03:04;;;;;;;38.42;16.05;;;0.60;99.90;;;-1.06;67.85;103177.06;4959527;28;20540;-70
2022/03/22 05:08:14;;;;;;;36.03;15.98;;;0.60;99.90;;;-1.02;67.68;103176.38;4966618;28;20054;-71
2022/03/22 05:10:41;;;;;;;57.53;22.52;;;0.60;99.90;;;-1.00;67.43;103177.34;4948768;28;20118;-70
2022/03/22 05:13:06;;;;;;;42.50;16.83;;;0.60;99.90;;;-0.97;67.78;103176.56;4961429;28;20094;-70
2022/03/22 05:15:32;;;;;;;35.75;16.48;;;0.60;99.90;;;-0.99;67.84;103175.63;4954289;28;20046;-71
2022/03/22 05:17:59;;;;;;;40.42;16.88;;;0.60;99.90;;;-0.90;67.78;103174.31;4932419;28;20502;-71
2022/03/22 05:20:25;;;;;;;36.60;16.52;;;0.60;99.90;;;-0.89;67.36;103176.06;4950573;28;20431;-71
2022/03/22 05:22:51;;;;;;;37.45;16.25;;;0.60;99.90;;;-0.90;67.54;103176.00;4948793;28;20023;-71
2022/03/22 05:25:18;;;;;;;38.63;16.52;;;0.70;99.90;;;-0.81;67.58;103173.78;4951542;28;20473;-71
2022/03/22 05:27:45;;;;;;;39.15;16.77;;;0.70;99.90;;;-0.76;67.12;103182.59;4947426;28;20073;-71
2022/03/22 05:30:14;;;;;;;49.15;19.23;;;0.80;99.90;;;-0.64;66.93;103185.66;4949283;28;20043;-70
2022/03/22 05:32:41;;;;;;;41.08;18.55;;;0.80;99.90;;;-0.55;66.67;103179.97;4948381;28;20031;-70
2022/03/22 05:35:09;;;;;;;40.10;16.63;;;0.90;99.90;;;-0.42;66.29;103182.19;4948952;28;20089;-70
2022/03/22 05:37:34;;;;;;;45.58;18.35;;;0.90;99.90;;;-0.27;66.30;103188.78;4941990;28;20078;-71
2022/03/22 05:40:00;;;;;;;43.90;17.35;;;1.00;99.90;;;-0.23;66.32;103185.50;4950325;28;20039;-70
2022/03/22 05:42:26;;;;;;;36.92;16.17;;;1.10;99.90;;;-0.17;65.95;103177.97;4964468;28;20050;-70
2022/03/22 05:44:53;;;;;;;42.65;18.48;;;1.10;99.90;;;-0.03;65.56;103183.63;4957510;28;20086;-71
2022/03/22 05:47:20;;;;;;;44.08;18.63;;;1.20;99.90;;;0.10;65.44;103179.78;4936685;28;20023;-70
2022/03/22 05:49:46;;;;;;;47.22;20.20;;;1.30;99.90;;;0.22;65.07;103181.91;4935774;28;20034;-71
2022/03/22 05:52:12;;;;;;;43.63;20.52;;;1.40;99.90;;;0.34;64.94;103180.63;4956287;28;20035;-71
2022/03/22 05:54:38;;;;;;;45.95;21.40;;;1.60;99.90;;;0.55;64.03;103177.91;4958000;28;20031;-70
2022/03/22 05:57:04;;;;;;;63.47;23.85;;;1.70;99.90;;;0.61;64.21;103178.13;4951026;28;20039;-71
2022/03/22 05:59:30;;;;;;;52.55;21.75;;;1.90;99.90;;;0.96;63.65;103178.41;4946040;28;20030;-71
2022/03/22 06:01:56;;;;;;;58.30;24.15;;;2.10;99.90;;;1.61;62.55;103183.00;4952281;28;20027;-70
2022/03/22 06:04:22;;;;;;;52.65;24.20;;;2.30;99.90;;;1.94;61.26;103188.28;4967431;28;20043;-70
2022/03/22 06:06:48;;;;;;;40.40;19.63;;;2.60;99.90;;;2.31;59.95;103196.25;4952755;28;20027;-71
2022/03/22 06:09:15;;;;;;;44.42;20.27;;;2.80;99.90;;;2.00;60.19;103195.41;4943523;28;20499;-71
2022/03/22 06:11:42;;;;;;;40.60;19.83;;;3.00;99.90;;;3.31;59.65;103198.78;4953570;28;20495;-71
2022/03/22 06:14:09;;;;;;;49.92;23.10;;;3.40;99.90;;;5.20;56.14;103189.31;4944579;28;20046;-71
2022/03/22 06:16:35;;;;;;;46.80;20.80;;;4.10;99.90;;;5.83;51.51;103209.41;4954043;28;20038;-71
2022/03/22 06:19:01;;;;;;;48.33;21.13;;;4.60;99.90;;;6.64;50.78;103206.81;4950165;28;20038;-71
2022/03/22 06:21:27;;;;;;;49.40;20.73;;;5.10;99.50;;;6.15;50.29;103219.38;4953658;28;20488;-71
2022/03/22 06:23:53;;;;;;;43.72;20.70;;;5.40;98.40;;;6.14;49.90;103223.75;4933736;28;20034;-71
2022/03/22 06:26:20;;;;;;;46.38;21.20;;;5.50;97.60;;;5.11;51.15;103221.41;4926297;28;20023;-71
2022/03/22 06:28:46;;;;;;;41.85;20.13;;;5.50;97.50;;;6.03;51.27;103222.75;4927949;28;20399;-72
2022/03/22 06:31:13;;;;;;;50.28;21.98;;;5.80;97.00;;;7.12;48.50;103228.19;4935662;28;20404;-71
2022/03/22 06:33:39;;;;;;;39.42;19.67;;;6.30;97.40;;;9.82;44.58;103230.56;4932643;28;20026;-71
2022/03/22 06:36:08;;;;;;;48.67;19.38;;;7.00;96.10;;;8.63;43.51;103256.94;4953012;28;20406;-71
2022/03/22 06:38:39;;;;;;;35.35;18.55;;;7.40;95.50;;;8.81;45.31;103257.81;4950458;28;20035;-71
2022/03/22 06:41:05;;;;;;;50.47;19.20;;;7.50;94.50;;;8.41;45.47;103260.38;4941243;28;20557;-71
2022/03/22 06:43:31;;;;;;;39.13;17.00;;;7.70;94.20;;;10.98;42.39;103265.94;4951347;28;20030;-72
2022/03/22 06:45:57;;;;;;;40.47;18.10;;;8.60;93.50;;;14.10;36.62;103274.78;4945816;28;20109;-71
2022/03/22 06:48:23;;;;;;;37.08;18.40;;;9.80;91.80;;;16.22;33.05;103294.28;4953080;28;20162;-71
2022/03/22 06:50:51;;;;;;;40.40;19.02;;;11.30;90.10;;;17.74;31.08;103305.31;4954937;28;20033;-71
2022/03/22 06:53:18;;;;;;;36.80;17.85;;;12.30;83.70;;;17.94;29.75;103340.13;4933624;28;20038;-71
2022/03/22 06:55:45;;;;;;;36.63;17.98;;;13.20;81.30;;;18.57;29.21;103353.75;4953225;28;20035;-72
2022/03/22 06:58:12;;;;;;;42.58;18.42;;;14.10;81.00;;;19.61;27.99;103377.19;4951327;28;20090;-71
2022/03/22 07:00:38;;;;;;;37.28;18.27;;;14.60;76.10;;;19.12;27.90;103392.59;4965372;28;20202;-72
2022/03/22 07:03:05;;;;;;;32.97;17.88;;;14.60;74.60;;;17.78;28.82;103398.41;4949786;28;20041;-71
2022/03/22 07:05:31;;;;;;;37.65;18.55;;;14.50;75.40;;;18.19;29.27;103398.78;4935392;28;20019;-71
2022/03/22 07:07:58;;;;;;;36.75;19.02;;;15.00;76.20;;;19.33;28.15;103413.09;4965610;28;20168;-71
2022/03/22 07:10:25;;;;;;;45.13;22.25;;;15.40;74.50;;;19.39;27.65;103428.84;4933978;28;20042;-73
2022/03/22 07:13:06;;;;;;;45.55;22.73;;;15.70;73.50;;;19.62;27.51;103433.25;4951313;28;20026;-72
2022/03/22 07:15:36;;;;;;;42.85;24.20;;;16.20;72.30;;;19.89;27.22;103438.38;4952306;28;20122;-72
2022/03/22 07:18:05;;;;;;;45.70;23.23;;;16.40;69.30;;;19.73;26.88;103446.19;4950177;28;20496;-72
2022/03/22 07:20:32;;;;;;;49.72;22.60;;;16.30;67.60;;;18.58;27.78;103451.56;4941120;28;20023;-72
2022/03/22 07:22:59;;;;;;;38.55;20.08;;;16.20;66.80;;;18.15;27.88;103460.28;4973592;28;20030;-72
2022/03/22 07:25:25;;;;;;;44.20;23.17;;;15.80;68.30;;;18.11;28.41;103451.50;4967354;28;20023;-72
2022/03/22 07:27:51;;;;;;;42.60;21.25;;;15.80;68.80;;;17.88;28.69;103457.63;4950343;28;20049;-73
2022/03/22 07:30:18;;;;;;;36.90;18.38;;;16.10;68.80;;;18.12;28.13;103466.59;4951435;28;20031;-72
2022/03/22 07:32:45;;;;;;;53.63;24.25;;;16.50;69.20;;;18.36;27.48;103482.66;4942458;28;20019;-73
2022/03/22 07:35:14;;;;;;;43.72;18.73;;;16.30;68.60;;;17.54;28.82;103477.38;4942630;28;20035;-73
2022/03/22 07:37:42;;;;;;;51.10;23.75;;;16.30;68.90;;;18.36;28.46;103471.97;4957396;28;20165;-73
2022/03/22 07:40:11;;;;;;;54.83;25.02;;;16.70;67.70;;;18.33;28.38;103475.59;4949869;28;20090;-73
2022/03/22 07:42:38;;;;;;;46.50;22.02;;;17.30;68.00;;;19.12;27.59;103472.72;4941264;28;20369;-74
2022/03/22 07:45:10;;;;;;;144.80;56.08;;;17.70;66.60;;;18.66;27.69;103475.31;4953392;28;20494;-73
2022/03/22 07:47:38;;;;;;;40.50;22.05;;;17.40;64.70;;;17.96;28.26;103481.38;4952618;28;20380;-74
2022/03/22 07:53:01;;;;;;;46.40;22.27;;;17.80;63.30;;;18.62;27.55;103492.38;4948376;28;20034;-73
2022/03/22 07:55:37;;;;;;;36.95;19.70;;;18.30;64.10;;;18.94;27.26;103506.31;4950016;28;20043;-74
2022/03/22 07:58:05;;;;;;;35.20;18.65;;;18.70;64.10;;;19.91;26.80;103513.19;4985850;28;20129;-74
2022/03/22 08:00:38;;;;;;;38.47;17.80;;;19.20;60.80;;;19.63;26.23;103519.63;4936198;28;20034;-74
2022/03/22 08:03:08;;;;;;;40.67;17.10;;;19.50;61.80;;;20.02;26.21;103524.28;4933364;28;20030;-74
2022/03/22 08:05:35;;;;;;;29.40;16.58;;;19.70;59.70;;;19.59;26.36;103526.03;4949653;28;20359;-74
2022/03/22 08:08:03;;;;;;;31.30;16.05;;;19.80;59.40;;;19.79;26.45;103527.94;4925112;28;20054;-74
2022/03/22 08:10:32;;;;;;;35.60;15.88;;;20.00;58.80;;;19.62;25.75;103525.94;4949846;28;20566;-74
2022/03/22 08:13:01;;;;;;;28.17;15.55;;;20.20;57.90;;;20.00;25.53;103531.50;4942075;28;20567;-74
2022/03/22 08:15:28;;;;;;;26.90;16.48;;;20.40;57.20;;;20.19;25.27;103535.13;4942308;28;20101;-75
2022/03/22 08:17:56;;;;;;;24.40;14.95;;;20.60;56.70;;;19.99;25.38;103535.13;4926030;28;20024;-74
2022/03/22 08:20:27;;;;;;;30.30;15.63;;;20.80;57.20;;;20.20;25.43;103539.56;4916724;28;20060;-74
2022/03/22 08:22:59;;;;;;;27.77;16.02;;;20.90;56.00;;;19.97;25.16;103537.00;4933450;28;20026;-74
2022/03/22 08:25:32;;;;;;;28.73;17.05;;;20.90;55.40;;;19.45;25.42;103540.81;4947288;28;20501;-74
2022/03/22 08:28:00;;;;;;;23.92;15.90;;;20.80;56.70;;;19.67;26.01;103534.63;4945831;28;20043;-74
2022/03/22 08:30:28;;;;;;;30.05;16.08;;;20.80;56.70;;;19.68;25.81;103539.91;4948576;28;20545;-73
2022/03/22 08:32:59;;;;;;;29.15;16.25;;;20.90;56.30;;;19.74;25.29;103536.16;4952553;28;20042;-73
2022/03/22 08:35:27;;;;;;;26.42;16.20;;;21.10;56.30;;;20.14;25.41;103545.19;4943183;28;20030;-74
2022/03/22 08:37:55;;;;;;;24.77;15.23;;;21.30;55.40;;;20.24;25.26;103551.03;4941898;28;20897;-74
2022/03/22 08:40:22;;;;;;;26.05;15.05;;;21.40;55.20;;;20.19;25.03;103553.00;4947459;28;20049;-73
2022/03/22 08:42:52;;;;;;;24.90;14.85;;;21.30;54.80;;;19.66;25.34;103548.94;4905858;28;20034;-74
2022/03/22 08:45:24;;;;;;;46.60;21.90;;;21.20;55.50;;;19.72;25.66;103554.06;4957543;28;20027;-74
2022/03/22 08:47:53;;;;;;;27.65;16.00;;;21.20;56.30;;;20.01;25.65;103552.84;4942411;28;20026;-75
2022/03/22 08:50:22;;;;;;;29.80;15.57;;;21.00;55.10;;;19.48;25.88;103555.84;4939584;28;20038;-73
2022/03/22 08:52:49;;;;;;;26.95;15.57;;;21.00;55.70;;;19.54;25.88;103555.63;4948354;28;20427;-74
2022/03/22 08:55:18;;;;;;;26.17;15.48;;;20.90;55.30;;;19.35;25.74;103563.50;4934482;28;20407;-74
2022/03/22 08:57:49;;;;;;;28.90;15.70;;;20.70;56.10;;;19.25;26.06;103559.44;4948303;28;20093;-73
2022/03/22 09:00:19;;;;;;;31.63;16.08;;;20.40;56.20;;;18.88;26.53;103557.28;4949404;28;20102;-73
2022/03/22 09:02:49;;;;;;;25.25;15.13;;;20.00;55.60;;;18.32;26.77;103558.38;4932420;28;20023;-73
2022/03/22 09:08:05;;;;;;;24.42;14.90;;;19.50;58.10;;;18.26;27.55;103543.44;4948037;28;20682;-74
2022/03/22 09:10:33;;;;;;;27.58;15.52;;;19.30;57.30;;;18.05;27.50;103545.03;4919880;28;20673;-74
2022/03/22 09:12:59;;;;;;;26.08;15.10;;;19.10;58.80;;;18.21;27.95;103540.06;4931061;28;20059;-74
2022/03/22 09:15:28;;;;;;;25.05;14.77;;;18.90;57.90;;;17.70;27.83;103536.38;4959468;28;20510;-73
2022/03/22 09:17:56;;;;;;;27.65;15.30;;;18.60;58.50;;;17.43;27.89;103535.47;4951624;28;20073;-74
2022/03/22 09:20:25;;;;;;;32.25;14.68;;;18.30;58.40;;;17.27;28.25;103540.38;4967336;28;20027;-73
2022/03/22 09:22:53;;;;;;;30.55;15.18;;;18.10;59.50;;;17.33;28.18;103537.53;4954515;28;20372;-74
2022/03/22 09:25:23;;;;;;;24.83;15.13;;;17.80;59.60;;;16.81;28.79;103512.44;4954111;28;20106;-74
2022/03/22 09:27:50;;;;;;;28.45;14.95;;;17.50;60.00;;;16.40;29.26;103517.97;4943270;28;20061;-74
2022/03/22 09:30:18;;;;;;;25.95;14.98;;;17.00;60.20;;;15.70;30.00;103509.97;4944040;28;20504;-73
2022/03/22 09:32:45;;;;;;;25.20;14.68;;;16.70;61.70;;;15.59;30.51;103512.00;4961814;28;21517;-74
2022/03/22 09:35:14;;;;;;;27.10;15.95;;;16.50;61.40;;;15.33;30.92;103500.22;4952182;28;20019;-73
2022/03/22 09:37:43;;;;;;;24.92;14.55;;;16.30;62.50;;;15.22;31.09;103502.22;4942462;28;20023;-74
2022/03/22 09:40:12;;;;;;;32.38;15.35;;;16.20;62.10;;;15.08;31.12;103499.00;4956109;28;20023;-75
2022/03/22 09:42:43;;;;;;;23.75;14.10;;;16.10;62.50;;;15.13;30.88;103491.81;4935957;28;20602;-74
2022/03/22 09:45:26;;;;;;;24.65;14.20;;;16.10;63.30;;;15.28;31.28;103488.81;4942858;28;20031;-73
2022/03/22 09:47:53;;;;;;;23.45;13.85;;;16.20;62.60;;;15.05;31.19;103491.09;4951617;28;20518;-73
2022/03/22 09:50:20;;;;;;;25.55;14.35;;;16.00;61.50;;;14.63;31.29;103477.84;4950964;28;20110;-74
2022/03/22 09:52:46;;;;;;;26.65;14.82;;;15.70;63.50;;;14.53;32.25;103477.97;4953136;28;20043;-74
2022/03/22 09:55:17;;;;;;;27.80;14.38;;;15.70;62.60;;;14.55;31.78;103470.88;4952837;28;20038;-73
2022/03/22 09:57:44;;;;;;;27.08;13.90;;;15.70;63.10;;;14.72;31.63;103478.50;4958331;28;20509;-74
2022/03/22 10:00:14;;;;;;;23.88;14.13;;;15.80;63.30;;;14.78;31.25;103469.56;4928579;28;20049;-74
2022/03/22 10:02:40;;;;;;;27.40;15.35;;;15.80;63.80;;;14.77;31.81;103465.16;4942951;28;20106;-73
2022/03/22 10:05:22;;;;;;;22.35;13.77;;;15.90;63.90;;;15.07;31.49;103468.91;4951996;28;20041;-73
2022/03/22 10:08:00;;;;;;;22.13;12.93;;;16.00;61.90;;;15.30;30.33;103467.56;4957040;28;20023;-73
2022/03/22 10:10:28;;;;;;;26.65;13.70;;;16.10;61.40;;;15.34;30.05;103475.41;4967093;28;20105;-73
2022/03/22 10:13:04;;;;;;;34.03;13.18;;;16.30;60.70;;;15.34;29.64;103474.53;4952204;28;20042;-73
2022/03/22 10:15:36;;;;;;;22.48;13.07;;;16.30;60.50;;;15.40;30.08;103469.09;4924970;28;20027;-73
2022/03/22 10:18:08;;;;;;;23.88;13.05;;;16.50;60.40;;;15.53;29.72;103469.69;4951239;28;20034;-73
2022/03/22 10:20:38;;;;;;;23.70;13.43;;;16.40;59.80;;;15.51;29.77;103471.50;4958832;28;20080;-73
2022/03/22 10:23:10;;;;;;;24.33;12.63;;;16.50;59.20;;;15.59;29.22;103469.50;4948906;28;20050;-74
2022/03/22 10:25:41;;;;;;;20.35;12.25;;;16.60;60.00;;;15.79;29.17;103471.72;4950499;28;20547;-74
2022/03/22 10:28:11;;;;;;;20.88;12.40;;;16.70;59.40;;;15.89;28.77;103473.22;4958070;28;20042;-73
2022/03/22 10:30:38;;;;;;;22.90;11.38;;;16.70;58.60;;;15.77;28.29;103479.72;4943436;28;20039;-74
2022/03/22 10:33:04;;;;;;;20.55;11.20;;;16.80;58.40;;;15.85;28.21;103478.66;4950429;28;20023;-73
2022/03/22 10:35:40;;;;;;;27.50;12.75;;;16.80;57.80;;;15.93;28.24;103479.34;4951104;28;20023;-73
2022/03/22 10:38:20;;;;;;;22.83;12.63;;;16.90;59.00;;;16.07;27.98;103479.88;4941686;28;20031;-74
2022/03/22 10:40:50;;;;;;;21.20;11.45;;;16.90;55.90;;;15.65;27.36;103487.94;4939657;28;20099;-73